Weather at Mountain Home Air Force Base

Public forecast

Using degrees Fahrenheit for public forecast. Weather courtesy of forecast.io.

Current aviation weather report (METAR) for Mountain Home Air Force Base

Retrieved 2022/07/03 05:58 UTC (27 minutes ago):

KMUO 030558Z AUTO 00000KT 10SM BKN150 27/02 A2966 RMK AO2 SLP012 T02700021 10349 20260 50003

Aviation forecast (TAF) for Mountain Home Air Force Base

Forecast is more than 12 hours old.

Retrieved 2022-06-30 02:05 UTC (3 days ago):

TAF KMUO 300200Z 3002/0108 33012G20KT 9999 FEW060 FEW120 QNH2995INS TEMPO 3002/3003 33015G26KT 510009 BECMG 3003/3004 VRB06KT 9999 FEW100 FEW190 QNH2996INS BECMG 0102/0103 34012KT 9999 FEW060 SCT120 SCT190 QNH2990INS TX30/3023Z TN14/3013Z LAST NO AMDS AFT 3003 NEXT 0510